Wetterdaten der Wetterstation 31177 Harsum

Letzte Wetterlage 31.03.2015 22:25
Wetterdiagramm
Tabellarische Darstellung
Datum Temperatur Windchill Feuchte Luftdruck Windrichtung Windstärke Niederschlag
31.03.2015 22:25 4,5 °C 4,5 °C 73 % 999,1 hPa 225 1.9 0 l/m²
31.03.2015 22:04 4,4 °C 4,4 °C 76 % 999,1 hPa 248 1.3 0 l/m²
31.03.2015 21:44 4,3 °C 2,9 °C 82 % 999,1 hPa 225 2.2 0 l/m²
31.03.2015 18:39 7,7 °C 5,0 °C 61 % 996,1 hPa 23 2.8 0 l/m²
31.03.2015 18:18 6,2 °C -0,7 °C 67 % 996,1 hPa 180 4.9 0 l/m²
31.03.2015 17:58 8,7 °C 6,1 °C 50 % 995,1 hPa 203 2.8 0 l/m²
31.03.2015 17:37 9,7 °C 7,2 °C 49 % 993,1 hPa 90 2.8 0 l/m²
31.03.2015 17:17 8,7 °C 4,0 °C 59 % 993,1 hPa 203 3.9 0 l/m²
31.03.2015 16:56 8,1 °C 8,1 °C 61 % 993,1 hPa 225 1.6 0 l/m²
31.03.2015 16:35 8,3 °C 2,3 °C 64 % 992,1 hPa 225 4.7 0 l/m²
31.03.2015 16:14 8,5 °C 6,8 °C 64 % 991,1 hPa 203 2.4 0 l/m²
31.03.2015 15:53 8,7 °C 4,3 °C 68 % 991,1 hPa 180 3.7 1,0 l/m²
31.03.2015 15:33 7,8 °C 5,1 °C 79 % 991,1 hPa 135 2.8 1,0 l/m²
31.03.2015 15:12 7,5 °C 5,0 °C 73 % 990,1 hPa 135 2.7 0 l/m²
31.03.2015 14:51 9,8 °C 5,5 °C 62 % 989,1 hPa 225 3.8 0 l/m²
31.03.2015 14:31 12,6 °C 8,1 °C 47 % 989,1 hPa 180 4.3 0 l/m²
31.03.2015 13:49 11,0 °C 6,9 °C 58 % 988,1 hPa 225 3.8 0 l/m²
31.03.2015 13:28 9,2 °C 7,3 °C 68 % 988,1 hPa 225 2.5 0 l/m²
31.03.2015 12:48 9,6 °C 1,8 °C 72 % 986,1 hPa 203 6.4 0 l/m²
31.03.2015 12:27 11,5 °C 10,0 °C 55 % 987,1 hPa 225 2.4 0 l/m²
31.03.2015 11:04 11,7 °C 6,5 °C 59 % 986,1 hPa 180 4.7 0 l/m²
31.03.2015 09:41 9,5 °C 9,5 °C 82 % 984,1 hPa 180 1.7 0 l/m²
31.03.2015 09:21 7,4 °C 3,0 °C 94 % 984,1 hPa 270 3.6 1,3 l/m²
31.03.2015 09:00 6,8 °C 4,0 °C 98 % 984,1 hPa 158 2.8 4,3 l/m²
31.03.2015 08:39 6,7 °C 0,3 °C 98 % 983,1 hPa 158 4.7 7,4 l/m²
Neue Wetterwarnung

Neue Niederschlagsmeldung
Neue Meldung
Regen Liveticker
    sehr starker Regen/Gewitter
    starker Regen/Gewitter
    mäßiger bis starker Regen
    mäßiger Regen
    leichter bis mäßiger Regen
    kein Regen